sensor_id;sensor_type;location;lat;lon;timestamp;pressure;altitude;pressure_sealevel;temperature;humidity
6096;BME280;25081;42.698;23.298;2024-02-21T00:00:40;95948.98;;;5.13;92.37
6096;BME280;25081;42.698;23.298;2024-02-21T00:02:48;95951.13;;;5.13;92.43
6096;BME280;25081;42.698;23.298;2024-02-21T00:04:57;95942.70;;;5.14;92.43
6096;BME280;25081;42.698;23.298;2024-02-21T00:07:06;95954.77;;;5.12;92.22
6096;BME280;25081;42.698;23.298;2024-02-21T00:09:14;95943.84;;;5.20;92.48
6096;BME280;25081;42.698;23.298;2024-02-21T00:11:23;95948.16;;;5.08;92.25
6096;BME280;25081;42.698;23.298;2024-02-21T00:13:32;95949.50;;;4.96;92.70
6096;BME280;25081;42.698;23.298;2024-02-21T00:15:41;95948.83;;;4.90;92.69
6096;BME280;25081;42.698;23.298;2024-02-21T00:17:50;95948.69;;;4.83;92.67
6096;BME280;25081;42.698;23.298;2024-02-21T00:19:59;95940.91;;;4.90;92.85
6096;BME280;25081;42.698;23.298;2024-02-21T00:22:08;95947.35;;;4.87;92.79
6096;BME280;25081;42.698;23.298;2024-02-21T00:24:16;95940.92;;;4.94;92.96
6096;BME280;25081;42.698;23.298;2024-02-21T00:26:25;95938.58;;;4.99;92.58
6096;BME280;25081;42.698;23.298;2024-02-21T00:28:34;95941.91;;;4.85;92.65
6096;BME280;25081;42.698;23.298;2024-02-21T00:30:42;95938.77;;;4.94;92.83
6096;BME280;25081;42.698;23.298;2024-02-21T00:32:51;95944.02;;;5.02;92.25
6096;BME280;25081;42.698;23.298;2024-02-21T00:35:00;95937.09;;;5.01;92.43
6096;BME280;25081;42.698;23.298;2024-02-21T00:37:08;95944.02;;;5.02;92.54
6096;BME280;25081;42.698;23.298;2024-02-21T00:39:17;95938.75;;;5.06;92.58
6096;BME280;25081;42.698;23.298;2024-02-21T00:41:26;95935.94;;;4.99;92.10
6096;BME280;25081;42.698;23.298;2024-02-21T00:43:34;95935.31;;;4.85;92.54
6096;BME280;25081;42.698;23.298;2024-02-21T00:45:43;95940.73;;;5.00;92.53
6096;BME280;25081;42.698;23.298;2024-02-21T00:47:52;95933.47;;;5.06;92.28
6096;BME280;25081;42.698;23.298;2024-02-21T00:50:01;95937.43;;;5.06;92.26
6096;BME280;25081;42.698;23.298;2024-02-21T00:52:10;95938.09;;;5.00;92.32
6096;BME280;25081;42.698;23.298;2024-02-21T00:54:18;95932.30;;;5.08;92.43
6096;BME280;25081;42.698;23.298;2024-02-21T00:56:27;95921.73;;;5.08;91.93
6096;BME280;25081;42.698;23.298;2024-02-21T00:58:36;95924.70;;;5.09;91.88
6096;BME280;25081;42.698;23.298;2024-02-21T01:00:44;95918.12;;;4.97;92.28
6096;BME280;25081;42.698;23.298;2024-02-21T01:02:53;95928.02;;;4.99;92.31
6096;BME280;25081;42.698;23.298;2024-02-21T01:05:02;95913.49;;;4.91;92.54
6096;BME280;25081;42.698;23.298;2024-02-21T01:07:11;95911.67;;;4.92;92.60
6096;BME280;25081;42.698;23.298;2024-02-21T01:09:20;95910.70;;;4.88;92.65
6096;BME280;25081;42.698;23.298;2024-02-21T01:11:29;95910.04;;;4.95;92.84
6096;BME280;25081;42.698;23.298;2024-02-21T01:13:37;95917.14;;;4.94;92.74
6096;BME280;25081;42.698;23.298;2024-02-21T01:15:46;95908.37;;;4.98;92.48
6096;BME280;25081;42.698;23.298;2024-02-21T01:17:55;95905.41;;;4.97;92.48
6096;BME280;25081;42.698;23.298;2024-02-21T01:20:05;95904.75;;;4.95;92.59
6096;BME280;25081;42.698;23.298;2024-02-21T01:22:14;95902.11;;;4.95;92.60
6096;BME280;25081;42.698;23.298;2024-02-21T01:24:23;95907.56;;;4.93;92.84
6096;BME280;25081;42.698;23.298;2024-02-21T01:26:32;95906.70;;;5.09;92.46
6096;BME280;25081;42.698;23.298;2024-02-21T01:28:41;95904.90;;;5.05;92.41
6096;BME280;25081;42.698;23.298;2024-02-21T01:30:49;95903.25;;;5.04;92.48
6096;BME280;25081;42.698;23.298;2024-02-21T01:32:58;95900.24;;;5.11;92.34
6096;BME280;25081;42.698;23.298;2024-02-21T01:35:08;95898.64;;;4.94;92.34
6096;BME280;25081;42.698;23.298;2024-02-21T01:37:16;95897.31;;;5.02;92.37
6096;BME280;25081;42.698;23.298;2024-02-21T01:39:25;95895.48;;;5.07;92.28
6096;BME280;25081;42.698;23.298;2024-02-21T01:41:34;95897.80;;;5.06;92.31
6096;BME280;25081;42.698;23.298;2024-02-21T01:43:43;95892.00;;;5.14;92.34
6096;BME280;25081;42.698;23.298;2024-02-21T01:45:52;95891.84;;;5.12;92.26
6096;BME280;25081;42.698;23.298;2024-02-21T01:48:00;95887.53;;;5.15;91.67
6096;BME280;25081;42.698;23.298;2024-02-21T01:50:09;95885.06;;;5.09;91.79
6096;BME280;25081;42.698;23.298;2024-02-21T01:52:18;95883.41;;;5.08;91.49
6096;BME280;25081;42.698;23.298;2024-02-21T01:54:27;95872.84;;;5.12;91.67
6096;BME280;25081;42.698;23.298;2024-02-21T01:56:36;95878.28;;;5.11;91.36
6096;BME280;25081;42.698;23.298;2024-02-21T01:58:45;95875.99;;;5.12;90.96
6096;BME280;25081;42.698;23.298;2024-02-21T02:00:54;95871.38;;;5.06;90.88
6096;BME280;25081;42.698;23.298;2024-02-21T02:03:03;95876.59;;;5.26;90.25
6096;BME280;25081;42.698;23.298;2024-02-21T02:05:12;95874.99;;;5.13;90.34
6096;BME280;25081;42.698;23.298;2024-02-21T02:07:21;95879.11;;;5.15;90.03
6096;BME280;25081;42.698;23.298;2024-02-21T02:09:29;95875.47;;;5.16;89.94
6096;BME280;25081;42.698;23.298;2024-02-21T02:11:38;95887.56;;;4.99;89.95
6096;BME280;25081;42.698;23.298;2024-02-21T02:13:47;95884.76;;;5.04;90.21
6096;BME280;25081;42.698;23.298;2024-02-21T02:15:56;95881.73;;;5.24;89.71
6096;BME280;25081;42.698;23.298;2024-02-21T02:18:05;95877.09;;;5.26;89.02
6096;BME280;25081;42.698;23.298;2024-02-21T02:20:14;95869.37;;;5.08;89.54
6096;BME280;25081;42.698;23.298;2024-02-21T02:22:25;95870.37;;;5.07;89.67
6096;BME280;25081;42.698;23.298;2024-02-21T02:24:32;95867.09;;;4.97;89.87
6096;BME280;25081;42.698;23.298;2024-02-21T02:26:41;95863.48;;;4.94;90.27
6096;BME280;25081;42.698;23.298;2024-02-21T02:28:49;95872.05;;;4.96;90.62
6096;BME280;25081;42.698;23.298;2024-02-21T02:30:58;95863.80;;;4.95;90.36
6096;BME280;25081;42.698;23.298;2024-02-21T02:33:07;95862.99;;;4.86;90.64
6096;BME280;25081;42.698;23.298;2024-02-21T02:35:15;95866.30;;;4.84;90.90
6096;BME280;25081;42.698;23.298;2024-02-21T02:37:24;95864.81;;;4.85;91.12
6096;BME280;25081;42.698;23.298;2024-02-21T02:39:33;95861.00;;;4.88;90.99
6096;BME280;25081;42.698;23.298;2024-02-21T02:41:41;95862.32;;;4.88;91.26
6096;BME280;25081;42.698;23.298;2024-02-21T02:43:50;95863.14;;;4.88;91.23
6096;BME280;25081;42.698;23.298;2024-02-21T02:45:59;95867.12;;;4.84;91.28
6096;BME280;25081;42.698;23.298;2024-02-21T02:48:09;95861.14;;;4.99;91.08
6096;BME280;25081;42.698;23.298;2024-02-21T02:50:17;95858.83;;;5.04;91.08
6096;BME280;25081;42.698;23.298;2024-02-21T02:52:26;95864.28;;;4.98;91.02
6096;BME280;25081;42.698;23.298;2024-02-21T02:54:35;95866.08;;;5.02;90.80
6096;BME280;25081;42.698;23.298;2024-02-21T02:56:43;95867.70;;;5.11;90.59
6096;BME280;25081;42.698;23.298;2024-02-21T02:58:52;95873.52;;;5.06;90.53
6096;BME280;25081;42.698;23.298;2024-02-21T03:01:01;95866.88;;;5.10;90.64
6096;BME280;25081;42.698;23.298;2024-02-21T03:03:10;95862.08;;;5.18;90.14
6096;BME280;25081;42.698;23.298;2024-02-21T03:05:19;95871.01;;;5.21;90.29
6096;BME280;25081;42.698;23.298;2024-02-21T03:07:27;95865.38;;;5.24;90.22
6096;BME280;25081;42.698;23.298;2024-02-21T03:09:36;95859.28;;;5.11;89.87
6096;BME280;25081;42.698;23.298;2024-02-21T03:11:45;95862.45;;;5.07;90.40
6096;BME280;25081;42.698;23.298;2024-02-21T03:13:53;95874.52;;;5.05;90.58
6096;BME280;25081;42.698;23.298;2024-02-21T03:16:03;95865.42;;;5.12;90.47
6096;BME280;25081;42.698;23.298;2024-02-21T03:18:12;95869.22;;;5.01;90.51
6096;BME280;25081;42.698;23.298;2024-02-21T03:20:21;95874.34;;;5.07;90.71
6096;BME280;25081;42.698;23.298;2024-02-21T03:22:29;95874.00;;;5.14;90.67
6096;BME280;25081;42.698;23.298;2024-02-21T03:24:38;95880.25;;;5.17;90.14
6096;BME280;25081;42.698;23.298;2024-02-21T03:26:47;95875.98;;;5.08;90.08
6096;BME280;25081;42.698;23.298;2024-02-21T03:28:56;95881.94;;;5.06;90.30
6096;BME280;25081;42.698;23.298;2024-02-21T03:31:04;95888.34;;;5.11;90.37
6096;BME280;25081;42.698;23.298;2024-02-21T03:33:13;95879.91;;;5.20;90.07
6096;BME280;25081;42.698;23.298;2024-02-21T03:35:22;95881.41;;;5.18;89.73
6096;BME280;25081;42.698;23.298;2024-02-21T03:37:31;95878.15;;;5.04;89.51
6096;BME280;25081;42.698;23.298;2024-02-21T03:39:40;95884.06;;;5.14;89.62
6096;BME280;25081;42.698;23.298;2024-02-21T03:41:49;95888.01;;;5.18;89.68
6096;BME280;25081;42.698;23.298;2024-02-21T03:43:58;95885.50;;;5.29;88.94
6096;BME280;25081;42.698;23.298;2024-02-21T03:46:06;95893.80;;;5.22;89.05
6096;BME280;25081;42.698;23.298;2024-02-21T03:48:15;95893.62;;;5.20;89.12
6096;BME280;25081;42.698;23.298;2024-02-21T03:50:24;95897.56;;;5.28;89.13
6096;BME280;25081;42.698;23.298;2024-02-21T03:52:33;95896.11;;;5.17;88.56
6096;BME280;25081;42.698;23.298;2024-02-21T03:54:41;95900.59;;;5.12;89.27
6096;BME280;25081;42.698;23.298;2024-02-21T03:56:50;95899.25;;;5.16;89.07
6096;BME280;25081;42.698;23.298;2024-02-21T03:58:59;95903.72;;;5.16;89.04
6096;BME280;25081;42.698;23.298;2024-02-21T04:01:07;95893.80;;;5.18;88.83
6096;BME280;25081;42.698;23.298;2024-02-21T04:03:16;95896.59;;;5.21;89.00
6096;BME280;25081;42.698;23.298;2024-02-21T04:05:25;95896.12;;;5.21;88.91
6096;BME280;25081;42.698;23.298;2024-02-21T04:07:33;95899.06;;;5.26;88.64
6096;BME280;25081;42.698;23.298;2024-02-21T04:09:42;95895.27;;;5.21;88.34
6096;BME280;25081;42.698;23.298;2024-02-21T04:11:51;95892.17;;;5.13;88.58
6096;BME280;25081;42.698;23.298;2024-02-21T04:13:59;95892.16;;;5.21;88.76
6096;BME280;25081;42.698;23.298;2024-02-21T04:16:09;95870.04;;;5.02;88.89
6096;BME280;25081;42.698;23.298;2024-02-21T04:18:17;95896.63;;;5.12;89.08
6096;BME280;25081;42.698;23.298;2024-02-21T04:20:26;95893.66;;;5.07;88.98
6096;BME280;25081;42.698;23.298;2024-02-21T04:22:35;95891.48;;;5.11;89.01
6096;BME280;25081;42.698;23.298;2024-02-21T04:24:44;95889.52;;;5.09;88.88
6096;BME280;25081;42.698;23.298;2024-02-21T04:26:52;95896.45;;;5.10;88.99
6096;BME280;25081;42.698;23.298;2024-02-21T04:29:01;95887.36;;;5.16;88.71
6096;BME280;25081;42.698;23.298;2024-02-21T04:31:10;95890.36;;;5.05;88.74
6096;BME280;25081;42.698;23.298;2024-02-21T04:33:18;95895.98;;;4.98;89.08
6096;BME280;25081;42.698;23.298;2024-02-21T04:35:27;95894.83;;;5.05;89.26
6096;BME280;25081;42.698;23.298;2024-02-21T04:37:36;95896.98;;;4.97;89.25
6096;BME280;25081;42.698;23.298;2024-02-21T04:39:44;95894.36;;;4.93;89.13
6096;BME280;25081;42.698;23.298;2024-02-21T04:41:53;95894.86;;;4.93;89.42
6096;BME280;25081;42.698;23.298;2024-02-21T04:44:02;95895.17;;;4.89;89.55
6096;BME280;25081;42.698;23.298;2024-02-21T04:46:11;95897.17;;;4.79;89.80
6096;BME280;25081;42.698;23.298;2024-02-21T04:48:20;95889.25;;;4.71;90.06
6096;BME280;25081;42.698;23.298;2024-02-21T04:50:28;95890.75;;;4.74;90.21
6096;BME280;25081;42.698;23.298;2024-02-21T04:52:37;95894.70;;;4.70;90.28
6096;BME280;25081;42.698;23.298;2024-02-21T04:54:46;95896.84;;;4.70;90.35
6096;BME280;25081;42.698;23.298;2024-02-21T04:56:55;95897.84;;;4.69;90.51
6096;BME280;25081;42.698;23.298;2024-02-21T04:59:03;95896.86;;;4.66;90.55
6096;BME280;25081;42.698;23.298;2024-02-21T05:01:12;95890.91;;;4.60;90.54
6096;BME280;25081;42.698;23.298;2024-02-21T05:03:21;95888.11;;;4.74;90.79
6096;BME280;25081;42.698;23.298;2024-02-21T05:05:30;95895.69;;;4.85;90.35
6096;BME280;25081;42.698;23.298;2024-02-21T05:07:38;95893.87;;;4.85;90.13
6096;BME280;25081;42.698;23.298;2024-02-21T05:09:47;95893.03;;;4.89;90.05
6096;BME280;25081;42.698;23.298;2024-02-21T05:11:56;95893.53;;;4.80;90.40
6096;BME280;25081;42.698;23.298;2024-02-21T05:14:05;95899.48;;;4.86;90.26
6096;BME280;25081;42.698;23.298;2024-02-21T05:16:13;95904.61;;;4.84;90.64
6096;BME280;25081;42.698;23.298;2024-02-21T05:18:23;95915.66;;;4.87;90.52
6096;BME280;25081;42.698;23.298;2024-02-21T05:20:31;95914.17;;;4.93;90.41
6096;BME280;25081;42.698;23.298;2024-02-21T05:22:40;95912.85;;;4.93;90.08
6096;BME280;25081;42.698;23.298;2024-02-21T05:24:48;95906.41;;;4.87;90.28
6096;BME280;25081;42.698;23.298;2024-02-21T05:26:57;95910.52;;;4.90;90.49
6096;BME280;25081;42.698;23.298;2024-02-21T05:29:06;95913.83;;;4.88;90.36
6096;BME280;25081;42.698;23.298;2024-02-21T05:31:15;95911.53;;;4.93;90.24
6096;BME280;25081;42.698;23.298;2024-02-21T05:33:23;95915.48;;;4.89;90.25
6096;BME280;25081;42.698;23.298;2024-02-21T05:35:32;95916.95;;;5.00;90.01
6096;BME280;25081;42.698;23.298;2024-02-21T05:37:41;95906.55;;;5.06;89.59
6096;BME280;25081;42.698;23.298;2024-02-21T05:39:49;95902.72;;;5.17;89.31
6096;BME280;25081;42.698;23.298;2024-02-21T05:41:58;95907.03;;;5.14;89.08
6096;BME280;25081;42.698;23.298;2024-02-21T05:44:07;95910.65;;;5.17;89.03
6096;BME280;25081;42.698;23.298;2024-02-21T05:46:18;95909.69;;;5.06;88.98
6096;BME280;25081;42.698;23.298;2024-02-21T05:48:24;95911.01;;;5.06;89.07
6096;BME280;25081;42.698;23.298;2024-02-21T05:50:33;95910.68;;;5.05;89.17
6096;BME280;25081;42.698;23.298;2024-02-21T05:52:41;95915.95;;;5.01;89.29
6096;BME280;25081;42.698;23.298;2024-02-21T05:54:50;95916.47;;;4.96;88.93
6096;BME280;25081;42.698;23.298;2024-02-21T05:56:59;95922.57;;;5.05;89.19
6096;BME280;25081;42.698;23.298;2024-02-21T05:59:07;95921.89;;;5.15;88.66
6096;BME280;25081;42.698;23.298;2024-02-21T06:01:16;95925.84;;;5.23;88.29
6096;BME280;25081;42.698;23.298;2024-02-21T06:03:25;95927.48;;;5.20;88.08
6096;BME280;25081;42.698;23.298;2024-02-21T06:05:36;95928.12;;;5.30;87.85
6096;BME280;25081;42.698;23.298;2024-02-21T06:07:45;95930.57;;;5.40;87.48
6096;BME280;25081;42.698;23.298;2024-02-21T06:09:54;95929.98;;;5.69;86.81
6096;BME280;25081;42.698;23.298;2024-02-21T06:12:03;95931.41;;;5.84;85.58
6096;BME280;25081;42.698;23.298;2024-02-21T06:14:12;95931.98;;;6.10;84.39
6096;BME280;25081;42.698;23.298;2024-02-21T06:16:20;95935.41;;;6.19;83.63
6096;BME280;25081;42.698;23.298;2024-02-21T06:18:29;95937.63;;;6.34;82.98
6096;BME280;25081;42.698;23.298;2024-02-21T06:20:38;95942.81;;;6.27;82.19
6096;BME280;25081;42.698;23.298;2024-02-21T06:22:47;95943.59;;;6.55;81.60
6096;BME280;25081;42.698;23.298;2024-02-21T06:24:55;95935.98;;;6.79;80.65
6096;BME280;25081;42.698;23.298;2024-02-21T06:27:04;95939.06;;;7.24;79.46
6096;BME280;25081;42.698;23.298;2024-02-21T06:29:13;95937.45;;;7.19;78.50
6096;BME280;25081;42.698;23.298;2024-02-21T06:31:22;95936.50;;;6.97;79.05
6096;BME280;25081;42.698;23.298;2024-02-21T06:33:31;95937.64;;;6.99;78.92
6096;BME280;25081;42.698;23.298;2024-02-21T06:35:40;95944.77;;;6.98;78.78
6096;BME280;25081;42.698;23.298;2024-02-21T06:37:49;95949.67;;;6.86;79.61
6096;BME280;25081;42.698;23.298;2024-02-21T06:39:57;95950.75;;;6.96;78.89
6096;BME280;25081;42.698;23.298;2024-02-21T06:42:06;95949.58;;;7.13;78.13
6096;BME280;25081;42.698;23.298;2024-02-21T06:44:15;95949.86;;;7.52;77.46
6096;BME280;25081;42.698;23.298;2024-02-21T06:46:27;95955.96;;;7.86;75.92
6096;BME280;25081;42.698;23.298;2024-02-21T06:48:35;95955.33;;;8.10;74.92
6096;BME280;25081;42.698;23.298;2024-02-21T06:50:44;95960.60;;;8.14;74.83
6096;BME280;25081;42.698;23.298;2024-02-21T06:52:53;95958.65;;;7.97;75.55
6096;BME280;25081;42.698;23.298;2024-02-21T06:55:01;95952.30;;;8.02;74.73
6096;BME280;25081;42.698;23.298;2024-02-21T06:57:10;95959.27;;;8.14;74.29
6096;BME280;25081;42.698;23.298;2024-02-21T06:59:19;95952.91;;;8.29;73.80
6096;BME280;25081;42.698;23.298;2024-02-21T07:01:27;95953.06;;;8.32;73.58
6096;BME280;25081;42.698;23.298;2024-02-21T07:03:36;95959.78;;;8.13;73.34
6096;BME280;25081;42.698;23.298;2024-02-21T07:05:45;95958.65;;;8.37;73.84
6096;BME280;25081;42.698;23.298;2024-02-21T07:07:53;95955.17;;;8.37;73.39
6096;BME280;25081;42.698;23.298;2024-02-21T07:10:02;95962.53;;;8.05;73.95
6096;BME280;25081;42.698;23.298;2024-02-21T07:12:11;95965.86;;;7.92;75.37
6096;BME280;25081;42.698;23.298;2024-02-21T07:14:20;95961.86;;;8.18;74.65
6096;BME280;25081;42.698;23.298;2024-02-21T07:16:29;95966.77;;;8.40;74.00
6096;BME280;25081;42.698;23.298;2024-02-21T07:18:37;95969.47;;;8.36;73.95
6096;BME280;25081;42.698;23.298;2024-02-21T07:20:46;95964.88;;;7.89;74.95
6096;BME280;25081;42.698;23.298;2024-02-21T07:22:55;95957.02;;;8.47;74.21
6096;BME280;25081;42.698;23.298;2024-02-21T07:25:05;95963.26;;;8.14;74.11
6096;BME280;25081;42.698;23.298;2024-02-21T07:27:15;95965.41;;;7.99;75.34
6096;BME280;25081;42.698;23.298;2024-02-21T07:29:24;95963.06;;;8.15;74.63
6096;BME280;25081;42.698;23.298;2024-02-21T07:31:39;95970.28;;;8.11;74.50
6096;BME280;25081;42.698;23.298;2024-02-21T07:33:48;95973.12;;;8.20;74.77
6096;BME280;25081;42.698;23.298;2024-02-21T07:35:57;95972.98;;;8.32;73.89
6096;BME280;25081;42.698;23.298;2024-02-21T07:38:06;95973.06;;;8.39;73.75
6096;BME280;25081;42.698;23.298;2024-02-21T07:40:14;95968.68;;;8.31;73.85
6096;BME280;25081;42.698;23.298;2024-02-21T07:42:23;95968.43;;;8.51;73.53
6096;BME280;25081;42.698;23.298;2024-02-21T07:44:32;95971.53;;;8.66;72.62
6096;BME280;25081;42.698;23.298;2024-02-21T07:46:41;95961.28;;;8.63;72.76
6096;BME280;25081;42.698;23.298;2024-02-21T07:48:50;95963.94;;;8.52;73.26
6096;BME280;25081;42.698;23.298;2024-02-21T07:50:58;95971.99;;;8.69;73.03
6096;BME280;25081;42.698;23.298;2024-02-21T07:53:07;95965.03;;;8.79;72.15
6096;BME280;25081;42.698;23.298;2024-02-21T07:55:16;95964.13;;;9.42;70.25
6096;BME280;25081;42.698;23.298;2024-02-21T07:57:24;95957.72;;;9.65;69.72
6096;BME280;25081;42.698;23.298;2024-02-21T07:59:33;95960.16;;;9.60;69.25
6096;BME280;25081;42.698;23.298;2024-02-21T08:01:42;95955.47;;;9.96;68.91
6096;BME280;25081;42.698;23.298;2024-02-21T08:03:50;95957.52;;;10.36;66.95
6096;BME280;25081;42.698;23.298;2024-02-21T08:05:59;95954.36;;;10.86;65.22
6096;BME280;25081;42.698;23.298;2024-02-21T08:08:08;95949.45;;;11.16;63.80
6096;BME280;25081;42.698;23.298;2024-02-21T08:10:17;95949.44;;;10.97;64.18
6096;BME280;25081;42.698;23.298;2024-02-21T08:12:25;95949.78;;;11.11;63.98
6096;BME280;25081;42.698;23.298;2024-02-21T08:14:34;95955.01;;;10.58;64.73
6096;BME280;25081;42.698;23.298;2024-02-21T08:16:43;95959.77;;;10.21;66.98
6096;BME280;25081;42.698;23.298;2024-02-21T08:18:51;95954.02;;;10.66;65.87
6096;BME280;25081;42.698;23.298;2024-02-21T08:21:00;95945.89;;;12.02;62.11
6096;BME280;25081;42.698;23.298;2024-02-21T08:23:08;95938.43;;;12.62;58.87
6096;BME280;25081;42.698;23.298;2024-02-21T08:25:17;95943.91;;;13.53;55.78
6096;BME280;25081;42.698;23.298;2024-02-21T08:27:26;95949.52;;;13.04;56.14
6096;BME280;25081;42.698;23.298;2024-02-21T08:29:34;95942.75;;;13.10;57.63
6096;BME280;25081;42.698;23.298;2024-02-21T08:31:43;95935.39;;;13.22;56.34
6096;BME280;25081;42.698;23.298;2024-02-21T08:33:52;95944.02;;;12.54;57.37
6096;BME280;25081;42.698;23.298;2024-02-21T08:36:00;95944.48;;;12.82;57.23
6096;BME280;25081;42.698;23.298;2024-02-21T08:38:09;95939.96;;;13.14;56.11
6096;BME280;25081;42.698;23.298;2024-02-21T08:40:18;95939.24;;;12.85;56.29
6096;BME280;25081;42.698;23.298;2024-02-21T08:42:26;95945.94;;;12.63;58.21
6096;BME280;25081;42.698;23.298;2024-02-21T08:44:35;95942.73;;;12.47;57.84
6096;BME280;25081;42.698;23.298;2024-02-21T08:46:44;95948.09;;;12.85;57.05
6096;BME280;25081;42.698;23.298;2024-02-21T08:48:52;95947.58;;;11.90;59.55
6096;BME280;25081;42.698;23.298;2024-02-21T08:51:01;95942.11;;;12.23;59.50
6096;BME280;25081;42.698;23.298;2024-02-21T08:53:09;95945.67;;;12.32;58.12
6096;BME280;25081;42.698;23.298;2024-02-21T08:55:18;95947.29;;;12.40;58.04
6096;BME280;25081;42.698;23.298;2024-02-21T08:57:27;95952.33;;;12.17;58.72
6096;BME280;25081;42.698;23.298;2024-02-21T08:59:36;95950.06;;;12.65;57.61
6096;BME280;25081;42.698;23.298;2024-02-21T09:01:45;95953.59;;;12.37;57.73
6096;BME280;25081;42.698;23.298;2024-02-21T09:03:53;95957.88;;;11.80;59.36
6096;BME280;25081;42.698;23.298;2024-02-21T09:06:02;95961.05;;;11.46;61.12
6096;BME280;25081;42.698;23.298;2024-02-21T09:08:11;95961.23;;;11.97;59.97
6096;BME280;25081;42.698;23.298;2024-02-21T09:10:20;95953.91;;;11.95;59.49
6096;BME280;25081;42.698;23.298;2024-02-21T09:12:28;95959.17;;;11.93;59.69
6096;BME280;25081;42.698;23.298;2024-02-21T09:14:37;95925.96;;;11.03;60.93
6096;BME280;25081;42.698;23.298;2024-02-21T09:16:46;95970.47;;;10.82;61.65
6096;BME280;25081;42.698;23.298;2024-02-21T09:18:54;95968.06;;;10.70;62.54
6096;BME280;25081;42.698;23.298;2024-02-21T09:21:03;95973.00;;;9.84;65.16
6096;BME280;25081;42.698;23.298;2024-02-21T09:23:12;95962.39;;;10.25;64.03
6096;BME280;25081;42.698;23.298;2024-02-21T09:25:21;95955.42;;;10.55;62.97
6096;BME280;25081;42.698;23.298;2024-02-21T09:27:30;95960.06;;;10.64;62.68
6096;BME280;25081;42.698;23.298;2024-02-21T09:29:39;95949.64;;;11.48;60.51
6096;BME280;25081;42.698;23.298;2024-02-21T09:31:47;95951.60;;;12.41;57.58
6096;BME280;25081;42.698;23.298;2024-02-21T09:33:56;95949.09;;;13.48;54.54
6096;BME280;25081;42.698;23.298;2024-02-21T09:36:06;95944.47;;;13.45;54.08
6096;BME280;25081;42.698;23.298;2024-02-21T09:38:14;95938.88;;;13.06;55.44
6096;BME280;25081;42.698;23.298;2024-02-21T09:40:23;95949.77;;;13.27;53.80
6096;BME280;25081;42.698;23.298;2024-02-21T09:42:35;95951.59;;;12.64;55.99
6096;BME280;25081;42.698;23.298;2024-02-21T09:44:41;95948.69;;;12.49;56.97
6096;BME280;25081;42.698;23.298;2024-02-21T09:46:55;95946.42;;;13.23;53.87
6096;BME280;25081;42.698;23.298;2024-02-21T09:49:08;95950.03;;;12.49;56.40
6096;BME280;25081;42.698;23.298;2024-02-21T09:51:13;95950.03;;;11.98;56.98
6096;BME280;25081;42.698;23.298;2024-02-21T09:53:22;95946.86;;;13.44;53.70
6096;BME280;25081;42.698;23.298;2024-02-21T09:55:31;95939.28;;;14.21;51.09
6096;BME280;25081;42.698;23.298;2024-02-21T09:57:40;95940.26;;;13.99;52.05
6096;BME280;25081;42.698;23.298;2024-02-21T09:59:49;95938.06;;;13.71;51.90
6096;BME280;25081;42.698;23.298;2024-02-21T10:01:58;95944.34;;;14.39;50.06
6096;BME280;25081;42.698;23.298;2024-02-21T10:04:07;95935.28;;;13.69;51.30
6096;BME280;25081;42.698;23.298;2024-02-21T10:06:15;95941.05;;;13.48;51.19
6096;BME280;25081;42.698;23.298;2024-02-21T10:08:24;95938.08;;;12.29;54.17
6096;BME280;25081;42.698;23.298;2024-02-21T10:10:43;95934.69;;;11.96;55.72
6096;BME280;25081;42.698;23.298;2024-02-21T10:12:51;95939.36;;;11.78;56.29
6096;BME280;25081;42.698;23.298;2024-02-21T10:15:03;95944.44;;;11.24;58.34
6096;BME280;25081;42.698;23.298;2024-02-21T10:17:17;95930.06;;;12.83;54.48
6096;BME280;25081;42.698;23.298;2024-02-21T10:19:25;95941.89;;;12.24;55.41
6096;BME280;25081;42.698;23.298;2024-02-21T10:21:35;95929.60;;;11.88;55.77
6096;BME280;25081;42.698;23.298;2024-02-21T10:23:45;95930.28;;;11.30;57.61
6096;BME280;25081;42.698;23.298;2024-02-21T10:25:53;95916.10;;;13.38;52.07
6096;BME280;25081;42.698;23.298;2024-02-21T10:28:02;95912.00;;;14.52;48.33
6096;BME280;25081;42.698;23.298;2024-02-21T10:30:14;95884.39;;;15.61;45.21
6096;BME280;25081;42.698;23.298;2024-02-21T10:32:22;95847.04;;;16.25;43.07
6096;BME280;25081;42.698;23.298;2024-02-21T10:34:31;95878.88;;;17.00;44.12
6096;BME280;25081;42.698;23.298;2024-02-21T10:36:40;95878.88;;;17.00;44.12
6096;BME280;25081;42.698;23.298;2024-02-21T10:38:48;95874.02;;;16.42;43.27
6096;BME280;25081;42.698;23.298;2024-02-21T10:40:57;95875.73;;;17.39;41.13
6096;BME280;25081;42.698;23.298;2024-02-21T10:43:06;95868.77;;;16.93;41.80
6096;BME280;25081;42.698;23.298;2024-02-21T10:45:15;95857.02;;;17.15;40.83
6096;BME280;25081;42.698;23.298;2024-02-21T10:47:23;95854.30;;;16.53;43.69
6096;BME280;25081;42.698;23.298;2024-02-21T10:49:33;95846.02;;;17.00;39.84
6096;BME280;25081;42.698;23.298;2024-02-21T10:51:42;95849.60;;;16.60;41.24
6096;BME280;25081;42.698;23.298;2024-02-21T10:53:54;95843.82;;;15.51;42.46
6096;BME280;25081;42.698;23.298;2024-02-21T10:56:11;95825.94;;;16.20;41.96
6096;BME280;25081;42.698;23.298;2024-02-21T10:58:11;95825.94;;;16.20;41.96
6096;BME280;25081;42.698;23.298;2024-02-21T11:00:20;95973.66;;;15.84;41.93
6096;BME280;25081;42.698;23.298;2024-02-21T11:02:29;95843.51;;;15.03;44.12
6096;BME280;25081;42.698;23.298;2024-02-21T11:04:37;95847.87;;;13.22;48.13
6096;BME280;25081;42.698;23.298;2024-02-21T11:06:46;95844.98;;;13.60;49.08
6096;BME280;25081;42.698;23.298;2024-02-21T11:09:05;95839.14;;;14.18;46.98
6096;BME280;25081;42.698;23.298;2024-02-21T11:11:14;95828.88;;;14.15;44.58
6096;BME280;25081;42.698;23.298;2024-02-21T11:13:31;95825.35;;;13.57;45.76
6096;BME280;25081;42.698;23.298;2024-02-21T11:15:40;95822.06;;;14.82;42.15
6096;BME280;25081;42.698;23.298;2024-02-21T11:17:55;95805.44;;;14.94;43.83
6096;BME280;25081;42.698;23.298;2024-02-21T11:20:13;95818.92;;;15.79;41.34
6096;BME280;25081;42.698;23.298;2024-02-21T11:22:21;95819.67;;;14.95;43.02
6096;BME280;25081;42.698;23.298;2024-02-21T11:24:31;95825.28;;;13.82;43.85
6096;BME280;25081;42.698;23.298;2024-02-21T11:26:39;95824.30;;;13.06;45.35
6096;BME280;25081;42.698;23.298;2024-02-21T11:28:58;95822.98;;;12.33;47.56